sensor_id;sensor_type;location;lat;lon;timestamp;temperature;humidity
12013;DHT22;6065;48.138;16.402;2024-01-30T00:01:13;2.40;99.90
12013;DHT22;6065;48.138;16.402;2024-01-30T00:03:39;2.40;99.90
12013;DHT22;6065;48.138;16.402;2024-01-30T00:06:07;2.40;99.90
12013;DHT22;6065;48.138;16.402;2024-01-30T00:08:34;2.30;99.90
12013;DHT22;6065;48.138;16.402;2024-01-30T00:11:02;2.30;99.90
12013;DHT22;6065;48.138;16.402;2024-01-30T00:13:29;2.20;99.90
12013;DHT22;6065;48.138;16.402;2024-01-30T00:15:55;2.20;99.90
12013;DHT22;6065;48.138;16.402;2024-01-30T00:18:22;2.20;99.90
12013;DHT22;6065;48.138;16.402;2024-01-30T00:20:49;2.10;99.90
12013;DHT22;6065;48.138;16.402;2024-01-30T00:23:16;2.10;99.90
12013;DHT22;6065;48.138;16.402;2024-01-30T00:25:43;2.10;99.90
12013;DHT22;6065;48.138;16.402;2024-01-30T00:28:11;2.00;99.90
12013;DHT22;6065;48.138;16.402;2024-01-30T00:30:38;2.00;99.90
12013;DHT22;6065;48.138;16.402;2024-01-30T00:33:05;2.00;99.90
12013;DHT22;6065;48.138;16.402;2024-01-30T00:35:31;2.00;99.90
12013;DHT22;6065;48.138;16.402;2024-01-30T00:37:58;2.00;99.90
12013;DHT22;6065;48.138;16.402;2024-01-30T00:40:25;2.00;99.90
12013;DHT22;6065;48.138;16.402;2024-01-30T00:42:52;2.00;99.90
12013;DHT22;6065;48.138;16.402;2024-01-30T00:45:20;2.00;99.90
12013;DHT22;6065;48.138;16.402;2024-01-30T00:47:47;2.10;99.90
12013;DHT22;6065;48.138;16.402;2024-01-30T00:50:14;2.10;99.90
12013;DHT22;6065;48.138;16.402;2024-01-30T00:52:41;2.10;99.90
12013;DHT22;6065;48.138;16.402;2024-01-30T00:55:10;2.10;99.90
12013;DHT22;6065;48.138;16.402;2024-01-30T00:57:37;2.10;99.90
12013;DHT22;6065;48.138;16.402;2024-01-30T01:00:04;2.10;99.90
12013;DHT22;6065;48.138;16.402;2024-01-30T01:02:35;2.10;99.90
12013;DHT22;6065;48.138;16.402;2024-01-30T01:05:02;2.10;99.90
12013;DHT22;6065;48.138;16.402;2024-01-30T01:07:28;2.00;99.90
12013;DHT22;6065;48.138;16.402;2024-01-30T01:09:55;2.00;99.90
12013;DHT22;6065;48.138;16.402;2024-01-30T01:12:22;2.00;99.90
12013;DHT22;6065;48.138;16.402;2024-01-30T01:14:49;2.00;99.90
12013;DHT22;6065;48.138;16.402;2024-01-30T01:17:16;2.00;99.90
12013;DHT22;6065;48.138;16.402;2024-01-30T01:19:45;2.10;99.90
12013;DHT22;6065;48.138;16.402;2024-01-30T01:22:12;2.00;99.90
12013;DHT22;6065;48.138;16.402;2024-01-30T01:24:39;2.00;99.90
12013;DHT22;6065;48.138;16.402;2024-01-30T01:27:05;2.00;99.90
12013;DHT22;6065;48.138;16.402;2024-01-30T01:29:32;2.00;99.90
12013;DHT22;6065;48.138;16.402;2024-01-30T01:31:59;2.00;99.90
12013;DHT22;6065;48.138;16.402;2024-01-30T01:34:26;2.00;99.90
12013;DHT22;6065;48.138;16.402;2024-01-30T01:36:54;2.00;99.90
12013;DHT22;6065;48.138;16.402;2024-01-30T01:39:21;2.00;99.90
12013;DHT22;6065;48.138;16.402;2024-01-30T01:41:49;1.90;99.90
12013;DHT22;6065;48.138;16.402;2024-01-30T01:44:16;1.90;99.90
12013;DHT22;6065;48.138;16.402;2024-01-30T01:46:43;1.90;99.90
12013;DHT22;6065;48.138;16.402;2024-01-30T01:49:10;1.90;99.90
12013;DHT22;6065;48.138;16.402;2024-01-30T01:51:37;1.90;99.90
12013;DHT22;6065;48.138;16.402;2024-01-30T01:54:07;1.90;99.90
12013;DHT22;6065;48.138;16.402;2024-01-30T01:56:34;1.90;99.90
12013;DHT22;6065;48.138;16.402;2024-01-30T01:59:05;1.90;99.90
12013;DHT22;6065;48.138;16.402;2024-01-30T02:01:32;1.90;99.90
12013;DHT22;6065;48.138;16.402;2024-01-30T02:03:59;1.80;99.90
12013;DHT22;6065;48.138;16.402;2024-01-30T02:06:26;1.80;99.90
12013;DHT22;6065;48.138;16.402;2024-01-30T02:08:53;1.80;99.90
12013;DHT22;6065;48.138;16.402;2024-01-30T02:11:21;1.80;99.90
12013;DHT22;6065;48.138;16.402;2024-01-30T02:13:48;1.80;99.90
12013;DHT22;6065;48.138;16.402;2024-01-30T02:16:15;1.80;99.90
12013;DHT22;6065;48.138;16.402;2024-01-30T02:18:42;1.80;99.90
12013;DHT22;6065;48.138;16.402;2024-01-30T02:21:14;1.80;99.90
12013;DHT22;6065;48.138;16.402;2024-01-30T02:23:40;1.80;99.90
12013;DHT22;6065;48.138;16.402;2024-01-30T02:26:08;1.80;99.90
12013;DHT22;6065;48.138;16.402;2024-01-30T02:28:34;1.80;99.90
12013;DHT22;6065;48.138;16.402;2024-01-30T02:31:01;1.70;99.90
12013;DHT22;6065;48.138;16.402;2024-01-30T02:33:28;1.70;99.90
12013;DHT22;6065;48.138;16.402;2024-01-30T02:35:55;1.70;99.90
12013;DHT22;6065;48.138;16.402;2024-01-30T02:38:23;1.70;99.90
12013;DHT22;6065;48.138;16.402;2024-01-30T02:40:52;1.70;99.90
12013;DHT22;6065;48.138;16.402;2024-01-30T02:43:19;1.70;99.90
12013;DHT22;6065;48.138;16.402;2024-01-30T02:45:45;1.60;99.90
12013;DHT22;6065;48.138;16.402;2024-01-30T02:48:12;1.60;99.90
12013;DHT22;6065;48.138;16.402;2024-01-30T02:50:39;1.60;99.90
12013;DHT22;6065;48.138;16.402;2024-01-30T02:53:06;1.60;99.90
12013;DHT22;6065;48.138;16.402;2024-01-30T02:55:34;1.50;99.90
12013;DHT22;6065;48.138;16.402;2024-01-30T02:58:01;1.50;99.90
12013;DHT22;6065;48.138;16.402;2024-01-30T03:00:28;1.50;99.90
12013;DHT22;6065;48.138;16.402;2024-01-30T03:02:54;1.50;99.90
12013;DHT22;6065;48.138;16.402;2024-01-30T03:05:21;1.50;99.90
12013;DHT22;6065;48.138;16.402;2024-01-30T03:07:48;1.50;99.90
12013;DHT22;6065;48.138;16.402;2024-01-30T03:10:15;1.50;99.90
12013;DHT22;6065;48.138;16.402;2024-01-30T03:12:43;1.50;99.90
12013;DHT22;6065;48.138;16.402;2024-01-30T03:15:10;1.40;99.90
12013;DHT22;6065;48.138;16.402;2024-01-30T03:17:37;1.40;99.90
12013;DHT22;6065;48.138;16.402;2024-01-30T03:20:04;1.40;99.90
12013;DHT22;6065;48.138;16.402;2024-01-30T03:22:31;1.40;99.90
12013;DHT22;6065;48.138;16.402;2024-01-30T03:24:58;1.40;99.90
12013;DHT22;6065;48.138;16.402;2024-01-30T03:27:25;1.30;99.90
12013;DHT22;6065;48.138;16.402;2024-01-30T03:29:53;1.30;99.90
12013;DHT22;6065;48.138;16.402;2024-01-30T03:32:20;1.30;99.90
12013;DHT22;6065;48.138;16.402;2024-01-30T03:34:47;1.30;99.90
12013;DHT22;6065;48.138;16.402;2024-01-30T03:37:14;1.20;99.90
12013;DHT22;6065;48.138;16.402;2024-01-30T03:39:40;1.20;99.90
12013;DHT22;6065;48.138;16.402;2024-01-30T03:42:07;1.10;99.90
12013;DHT22;6065;48.138;16.402;2024-01-30T03:44:34;1.10;99.90
12013;DHT22;6065;48.138;16.402;2024-01-30T03:47:02;1.20;99.90
12013;DHT22;6065;48.138;16.402;2024-01-30T03:49:29;1.20;99.90
12013;DHT22;6065;48.138;16.402;2024-01-30T03:51:56;1.20;99.90
12013;DHT22;6065;48.138;16.402;2024-01-30T03:54:23;1.20;99.90
12013;DHT22;6065;48.138;16.402;2024-01-30T03:56:50;1.20;99.90
12013;DHT22;6065;48.138;16.402;2024-01-30T03:59:20;1.20;99.90
12013;DHT22;6065;48.138;16.402;2024-01-30T04:01:49;1.20;99.90
12013;DHT22;6065;48.138;16.402;2024-01-30T04:04:17;1.10;99.90
12013;DHT22;6065;48.138;16.402;2024-01-30T04:06:44;1.20;99.90
12013;DHT22;6065;48.138;16.402;2024-01-30T04:09:12;1.10;99.90
12013;DHT22;6065;48.138;16.402;2024-01-30T04:11:39;1.20;99.90
12013;DHT22;6065;48.138;16.402;2024-01-30T04:14:05;1.10;99.90
12013;DHT22;6065;48.138;16.402;2024-01-30T04:16:32;1.10;99.90
12013;DHT22;6065;48.138;16.402;2024-01-30T04:18:59;1.00;99.90
12013;DHT22;6065;48.138;16.402;2024-01-30T04:21:27;1.00;99.90
12013;DHT22;6065;48.138;16.402;2024-01-30T04:23:54;0.90;99.90
12013;DHT22;6065;48.138;16.402;2024-01-30T04:26:21;0.90;99.90
12013;DHT22;6065;48.138;16.402;2024-01-30T04:28:48;0.90;99.90
12013;DHT22;6065;48.138;16.402;2024-01-30T04:31:15;0.90;99.90
12013;DHT22;6065;48.138;16.402;2024-01-30T04:33:41;0.90;99.90
12013;DHT22;6065;48.138;16.402;2024-01-30T04:36:08;0.80;99.90
12013;DHT22;6065;48.138;16.402;2024-01-30T04:38:38;0.90;99.90
12013;DHT22;6065;48.138;16.402;2024-01-30T04:41:05;0.80;99.90
12013;DHT22;6065;48.138;16.402;2024-01-30T04:43:32;0.80;99.90
12013;DHT22;6065;48.138;16.402;2024-01-30T04:45:58;0.80;99.90
12013;DHT22;6065;48.138;16.402;2024-01-30T04:48:25;0.80;99.90
12013;DHT22;6065;48.138;16.402;2024-01-30T04:50:52;0.80;99.90
12013;DHT22;6065;48.138;16.402;2024-01-30T04:53:19;0.80;99.90
12013;DHT22;6065;48.138;16.402;2024-01-30T04:55:48;0.70;99.90
12013;DHT22;6065;48.138;16.402;2024-01-30T04:58:14;0.70;99.90
12013;DHT22;6065;48.138;16.402;2024-01-30T05:00:41;0.70;99.90
12013;DHT22;6065;48.138;16.402;2024-01-30T05:03:08;0.70;99.90
12013;DHT22;6065;48.138;16.402;2024-01-30T05:05:35;0.60;99.90
12013;DHT22;6065;48.138;16.402;2024-01-30T05:08:02;0.60;99.90
12013;DHT22;6065;48.138;16.402;2024-01-30T05:10:28;0.60;99.90
12013;DHT22;6065;48.138;16.402;2024-01-30T05:12:57;0.60;99.90
12013;DHT22;6065;48.138;16.402;2024-01-30T05:15:23;0.70;99.90
12013;DHT22;6065;48.138;16.402;2024-01-30T05:17:50;0.60;99.90
12013;DHT22;6065;48.138;16.402;2024-01-30T05:20:17;0.60;99.90
12013;DHT22;6065;48.138;16.402;2024-01-30T05:22:44;0.60;99.90
12013;DHT22;6065;48.138;16.402;2024-01-30T05:25:11;0.60;99.90
12013;DHT22;6065;48.138;16.402;2024-01-30T05:27:38;0.60;99.90
12013;DHT22;6065;48.138;16.402;2024-01-30T05:30:07;0.60;99.90
12013;DHT22;6065;48.138;16.402;2024-01-30T05:32:34;0.60;99.90
12013;DHT22;6065;48.138;16.402;2024-01-30T05:35:01;0.60;99.90
12013;DHT22;6065;48.138;16.402;2024-01-30T05:37:28;0.60;99.90
12013;DHT22;6065;48.138;16.402;2024-01-30T05:39:55;0.50;99.90
12013;DHT22;6065;48.138;16.402;2024-01-30T05:42:23;0.50;99.90
12013;DHT22;6065;48.138;16.402;2024-01-30T05:44:50;0.50;99.90
12013;DHT22;6065;48.138;16.402;2024-01-30T05:47:18;0.60;99.90
12013;DHT22;6065;48.138;16.402;2024-01-30T05:49:44;0.60;99.90
12013;DHT22;6065;48.138;16.402;2024-01-30T05:52:11;0.60;99.90
12013;DHT22;6065;48.138;16.402;2024-01-30T05:54:38;0.60;99.90
12013;DHT22;6065;48.138;16.402;2024-01-30T05:57:05;0.60;99.90
12013;DHT22;6065;48.138;16.402;2024-01-30T05:59:32;0.60;99.90
12013;DHT22;6065;48.138;16.402;2024-01-30T06:01:59;0.60;99.90
12013;DHT22;6065;48.138;16.402;2024-01-30T06:04:27;0.60;99.90
12013;DHT22;6065;48.138;16.402;2024-01-30T06:06:54;0.50;99.90
12013;DHT22;6065;48.138;16.402;2024-01-30T06:09:21;0.50;99.90
12013;DHT22;6065;48.138;16.402;2024-01-30T06:11:47;0.50;99.90
12013;DHT22;6065;48.138;16.402;2024-01-30T06:14:14;0.50;99.90
12013;DHT22;6065;48.138;16.402;2024-01-30T06:16:41;0.40;99.90
12013;DHT22;6065;48.138;16.402;2024-01-30T06:19:08;0.40;99.90
12013;DHT22;6065;48.138;16.402;2024-01-30T06:21:39;0.40;99.90
12013;DHT22;6065;48.138;16.402;2024-01-30T06:24:06;0.40;99.90
12013;DHT22;6065;48.138;16.402;2024-01-30T06:26:33;0.40;99.90
12013;DHT22;6065;48.138;16.402;2024-01-30T06:29:00;0.40;99.90
12013;DHT22;6065;48.138;16.402;2024-01-30T06:31:27;0.40;99.90
12013;DHT22;6065;48.138;16.402;2024-01-30T06:33:54;0.40;99.90
12013;DHT22;6065;48.138;16.402;2024-01-30T06:36:21;0.40;99.90
12013;DHT22;6065;48.138;16.402;2024-01-30T06:38:49;0.40;99.90
12013;DHT22;6065;48.138;16.402;2024-01-30T06:41:16;0.40;99.90
12013;DHT22;6065;48.138;16.402;2024-01-30T06:43:42;0.40;99.90
12013;DHT22;6065;48.138;16.402;2024-01-30T06:46:10;0.40;99.90
12013;DHT22;6065;48.138;16.402;2024-01-30T06:48:38;0.40;99.90
12013;DHT22;6065;48.138;16.402;2024-01-30T06:51:06;0.40;99.90
12013;DHT22;6065;48.138;16.402;2024-01-30T06:53:32;0.40;99.90
12013;DHT22;6065;48.138;16.402;2024-01-30T06:56:01;0.40;99.90
12013;DHT22;6065;48.138;16.402;2024-01-30T06:58:27;0.40;99.90
12013;DHT22;6065;48.138;16.402;2024-01-30T07:00:54;0.50;99.90
12013;DHT22;6065;48.138;16.402;2024-01-30T07:03:21;0.50;99.90
12013;DHT22;6065;48.138;16.402;2024-01-30T07:05:48;0.40;99.90
12013;DHT22;6065;48.138;16.402;2024-01-30T07:08:15;0.40;99.90
12013;DHT22;6065;48.138;16.402;2024-01-30T07:10:42;0.40;99.90
12013;DHT22;6065;48.138;16.402;2024-01-30T07:13:11;0.40;99.90
12013;DHT22;6065;48.138;16.402;2024-01-30T07:15:38;0.40;99.90
12013;DHT22;6065;48.138;16.402;2024-01-30T07:18:05;0.40;99.90
12013;DHT22;6065;48.138;16.402;2024-01-30T07:20:32;0.50;99.90
12013;DHT22;6065;48.138;16.402;2024-01-30T07:22:58;0.50;99.90
12013;DHT22;6065;48.138;16.402;2024-01-30T07:25:25;0.50;99.90
12013;DHT22;6065;48.138;16.402;2024-01-30T07:27:54;0.60;99.90
12013;DHT22;6065;48.138;16.402;2024-01-30T07:30:22;0.60;99.90
12013;DHT22;6065;48.138;16.402;2024-01-30T07:32:49;0.60;99.90
12013;DHT22;6065;48.138;16.402;2024-01-30T07:35:16;0.60;99.90
12013;DHT22;6065;48.138;16.402;2024-01-30T07:37:43;0.70;99.90
12013;DHT22;6065;48.138;16.402;2024-01-30T07:40:10;0.60;99.90
12013;DHT22;6065;48.138;16.402;2024-01-30T07:42:37;0.70;99.90
12013;DHT22;6065;48.138;16.402;2024-01-30T07:45:04;0.70;99.90
12013;DHT22;6065;48.138;16.402;2024-01-30T07:47:33;0.70;99.90
12013;DHT22;6065;48.138;16.402;2024-01-30T07:49:59;0.80;99.90
12013;DHT22;6065;48.138;16.402;2024-01-30T07:52:26;0.80;99.90
12013;DHT22;6065;48.138;16.402;2024-01-30T07:54:53;0.80;99.90
12013;DHT22;6065;48.138;16.402;2024-01-30T07:57:20;0.90;99.90
12013;DHT22;6065;48.138;16.402;2024-01-30T07:59:47;0.90;99.90
12013;DHT22;6065;48.138;16.402;2024-01-30T08:02:14;0.90;99.90
12013;DHT22;6065;48.138;16.402;2024-01-30T08:04:42;0.90;99.90
12013;DHT22;6065;48.138;16.402;2024-01-30T08:07:14;1.00;99.90
12013;DHT22;6065;48.138;16.402;2024-01-30T08:09:40;1.00;99.90
12013;DHT22;6065;48.138;16.402;2024-01-30T08:12:07;1.00;99.90
12013;DHT22;6065;48.138;16.402;2024-01-30T08:14:34;1.00;99.90
12013;DHT22;6065;48.138;16.402;2024-01-30T08:17:01;1.10;99.90
12013;DHT22;6065;48.138;16.402;2024-01-30T08:19:28;1.10;99.90
12013;DHT22;6065;48.138;16.402;2024-01-30T08:21:56;1.10;99.90
12013;DHT22;6065;48.138;16.402;2024-01-30T08:24:23;1.10;99.90
12013;DHT22;6065;48.138;16.402;2024-01-30T08:26:50;1.20;99.90
12013;DHT22;6065;48.138;16.402;2024-01-30T08:29:17;1.20;99.90
12013;DHT22;6065;48.138;16.402;2024-01-30T08:31:43;1.20;99.90
12013;DHT22;6065;48.138;16.402;2024-01-30T08:34:11;1.30;99.90
12013;DHT22;6065;48.138;16.402;2024-01-30T08:36:38;1.30;99.90
12013;DHT22;6065;48.138;16.402;2024-01-30T08:39:06;1.30;99.90
12013;DHT22;6065;48.138;16.402;2024-01-30T08:41:33;1.30;99.90
12013;DHT22;6065;48.138;16.402;2024-01-30T08:44:00;1.40;99.90
12013;DHT22;6065;48.138;16.402;2024-01-30T08:46:27;1.50;99.90
12013;DHT22;6065;48.138;16.402;2024-01-30T08:48:53;1.50;99.90
12013;DHT22;6065;48.138;16.402;2024-01-30T08:51:20;1.60;99.90
12013;DHT22;6065;48.138;16.402;2024-01-30T08:53:47;1.60;99.90
12013;DHT22;6065;48.138;16.402;2024-01-30T08:56:15;1.60;99.90
12013;DHT22;6065;48.138;16.402;2024-01-30T08:58:42;1.60;99.90
12013;DHT22;6065;48.138;16.402;2024-01-30T09:01:09;1.60;99.90
12013;DHT22;6065;48.138;16.402;2024-01-30T09:03:36;1.70;99.90
12013;DHT22;6065;48.138;16.402;2024-01-30T09:06:07;1.70;99.90
12013;DHT22;6065;48.138;16.402;2024-01-30T09:08:34;1.80;99.90
12013;DHT22;6065;48.138;16.402;2024-01-30T09:11:01;1.80;99.90
12013;DHT22;6065;48.138;16.402;2024-01-30T09:13:32;1.90;99.90
12013;DHT22;6065;48.138;16.402;2024-01-30T09:15:58;2.00;99.90
12013;DHT22;6065;48.138;16.402;2024-01-30T09:18:25;2.00;99.90
12013;DHT22;6065;48.138;16.402;2024-01-30T09:20:52;2.10;99.90
12013;DHT22;6065;48.138;16.402;2024-01-30T09:23:19;2.20;99.90
12013;DHT22;6065;48.138;16.402;2024-01-30T09:25:47;2.20;99.90
12013;DHT22;6065;48.138;16.402;2024-01-30T09:28:14;2.30;99.90
12013;DHT22;6065;48.138;16.402;2024-01-30T09:30:42;2.30;99.90
12013;DHT22;6065;48.138;16.402;2024-01-30T09:33:09;2.40;99.90
12013;DHT22;6065;48.138;16.402;2024-01-30T09:35:36;2.50;99.90
12013;DHT22;6065;48.138;16.402;2024-01-30T09:38:03;2.50;99.90
12013;DHT22;6065;48.138;16.402;2024-01-30T09:40:30;2.60;99.90
12013;DHT22;6065;48.138;16.402;2024-01-30T09:42:57;2.60;99.90
12013;DHT22;6065;48.138;16.402;2024-01-30T09:45:26;2.60;99.90
12013;DHT22;6065;48.138;16.402;2024-01-30T09:47:54;2.70;99.90
12013;DHT22;6065;48.138;16.402;2024-01-30T09:50:22;2.90;99.90
12013;DHT22;6065;48.138;16.402;2024-01-30T09:52:48;2.90;99.90
12013;DHT22;6065;48.138;16.402;2024-01-30T09:55:16;2.90;99.90
12013;DHT22;6065;48.138;16.402;2024-01-30T09:57:43;3.00;99.90
12013;DHT22;6065;48.138;16.402;2024-01-30T10:00:10;3.00;99.90
12013;DHT22;6065;48.138;16.402;2024-01-30T14:04:58;6.60;99.90
12013;DHT22;6065;48.138;16.402;2024-01-30T14:07:25;6.60;99.90
12013;DHT22;6065;48.138;16.402;2024-01-30T14:50:00;6.20;99.90
12013;DHT22;6065;48.138;16.402;2024-01-30T14:58:33;6.20;99.90
12013;DHT22;6065;48.138;16.402;2024-01-30T15:01:00;6.20;99.90
12013;DHT22;6065;48.138;16.402;2024-01-30T15:03:27;6.20;99.90
12013;DHT22;6065;48.138;16.402;2024-01-30T15:05:55;6.10;99.90
12013;DHT22;6065;48.138;16.402;2024-01-30T15:08:22;6.10;99.90
12013;DHT22;6065;48.138;16.402;2024-01-30T15:10:49;6.00;99.90
12013;DHT22;6065;48.138;16.402;2024-01-30T15:13:16;6.00;99.90
12013;DHT22;6065;48.138;16.402;2024-01-30T15:15:43;5.90;99.90
12013;DHT22;6065;48.138;16.402;2024-01-30T15:18:10;5.90;99.90
12013;DHT22;6065;48.138;16.402;2024-01-30T15:20:37;5.90;99.90
12013;DHT22;6065;48.138;16.402;2024-01-30T15:23:05;5.90;99.90
12013;DHT22;6065;48.138;16.402;2024-01-30T15:25:32;5.80;99.90
12013;DHT22;6065;48.138;16.402;2024-01-30T15:27:59;5.80;99.90
12013;DHT22;6065;48.138;16.402;2024-01-30T15:30:26;5.80;99.90
12013;DHT22;6065;48.138;16.402;2024-01-30T15:32:53;5.70;99.90
12013;DHT22;6065;48.138;16.402;2024-01-30T15:35:20;5.70;99.90
12013;DHT22;6065;48.138;16.402;2024-01-30T15:37:47;5.70;99.90
12013;DHT22;6065;48.138;16.402;2024-01-30T15:40:15;5.60;99.90
12013;DHT22;6065;48.138;16.402;2024-01-30T15:42:42;5.60;99.90
12013;DHT22;6065;48.138;16.402;2024-01-30T15:45:08;5.60;99.90
12013;DHT22;6065;48.138;16.402;2024-01-30T15:47:35;5.50;99.90
12013;DHT22;6065;48.138;16.402;2024-01-30T15:50:03;5.50;99.90
12013;DHT22;6065;48.138;16.402;2024-01-30T15:52:30;5.40;99.90
12013;DHT22;6065;48.138;16.402;2024-01-30T15:54:57;5.40;99.90
12013;DHT22;6065;48.138;16.402;2024-01-30T15:57:25;5.40;99.90
12013;DHT22;6065;48.138;16.402;2024-01-30T15:59:52;5.40;99.90
12013;DHT22;6065;48.138;16.402;2024-01-30T16:02:19;5.30;99.90
12013;DHT22;6065;48.138;16.402;2024-01-30T16:04:45;5.30;99.90
12013;DHT22;6065;48.138;16.402;2024-01-30T16:07:12;5.20;99.90
12013;DHT22;6065;48.138;16.402;2024-01-30T16:09:39;5.20;99.90
12013;DHT22;6065;48.138;16.402;2024-01-30T16:12:06;5.20;99.90
12013;DHT22;6065;48.138;16.402;2024-01-30T16:14:34;5.10;99.90
12013;DHT22;6065;48.138;16.402;2024-01-30T16:17:01;5.10;99.90
12013;DHT22;6065;48.138;16.402;2024-01-30T16:19:28;5.00;99.90
12013;DHT22;6065;48.138;16.402;2024-01-30T16:21:55;5.00;99.90
12013;DHT22;6065;48.138;16.402;2024-01-30T16:24:22;5.00;99.90
12013;DHT22;6065;48.138;16.402;2024-01-30T16:26:49;5.00;99.90
12013;DHT22;6065;48.138;16.402;2024-01-30T16:29:16;5.00;99.90
12013;DHT22;6065;48.138;16.402;2024-01-30T16:31:44;4.90;99.90
12013;DHT22;6065;48.138;16.402;2024-01-30T16:34:11;4.90;99.90
12013;DHT22;6065;48.138;16.402;2024-01-30T16:36:37;4.90;99.90
12013;DHT22;6065;48.138;16.402;2024-01-30T16:39:05;4.80;99.90
12013;DHT22;6065;48.138;16.402;2024-01-30T16:41:32;4.80;99.90
12013;DHT22;6065;48.138;16.402;2024-01-30T16:43:59;4.80;99.90
12013;DHT22;6065;48.138;16.402;2024-01-30T16:46:26;4.80;99.90
12013;DHT22;6065;48.138;16.402;2024-01-30T16:48:54;4.70;99.90
12013;DHT22;6065;48.138;16.402;2024-01-30T16:51:21;4.70;99.90
12013;DHT22;6065;48.138;16.402;2024-01-30T16:53:48;4.70;99.90
12013;DHT22;6065;48.138;16.402;2024-01-30T16:56:15;4.70;99.90
12013;DHT22;6065;48.138;16.402;2024-01-30T16:58:41;4.60;99.90
12013;DHT22;6065;48.138;16.402;2024-01-30T17:01:08;4.60;99.90
12013;DHT22;6065;48.138;16.402;2024-01-30T17:03:35;4.60;99.90
12013;DHT22;6065;48.138;16.402;2024-01-30T17:06:04;4.60;99.90
12013;DHT22;6065;48.138;16.402;2024-01-30T17:08:33;4.50;99.90
12013;DHT22;6065;48.138;16.402;2024-01-30T17:11:00;4.50;99.90
12013;DHT22;6065;48.138;16.402;2024-01-30T17:13:27;4.50;99.90
12013;DHT22;6065;48.138;16.402;2024-01-30T17:15:54;4.50;99.90
12013;DHT22;6065;48.138;16.402;2024-01-30T17:18:22;4.50;99.90
12013;DHT22;6065;48.138;16.402;2024-01-30T17:20:49;4.40;99.90
12013;DHT22;6065;48.138;16.402;2024-01-30T17:23:17;4.40;99.90
12013;DHT22;6065;48.138;16.402;2024-01-30T17:25:46;4.40;99.90
12013;DHT22;6065;48.138;16.402;2024-01-30T17:28:12;4.30;99.90
12013;DHT22;6065;48.138;16.402;2024-01-30T17:30:39;4.30;99.90
12013;DHT22;6065;48.138;16.402;2024-01-30T17:33:06;4.30;99.90
12013;DHT22;6065;48.138;16.402;2024-01-30T17:35:33;4.30;99.90
12013;DHT22;6065;48.138;16.402;2024-01-30T17:38:00;4.20;99.90
12013;DHT22;6065;48.138;16.402;2024-01-30T17:40:28;4.20;99.90
12013;DHT22;6065;48.138;16.402;2024-01-30T17:42:55;4.20;99.90
12013;DHT22;6065;48.138;16.402;2024-01-30T17:45:22;4.20;99.90
12013;DHT22;6065;48.138;16.402;2024-01-30T17:47:49;4.20;99.90
12013;DHT22;6065;48.138;16.402;2024-01-30T17:50:16;4.10;99.90
12013;DHT22;6065;48.138;16.402;2024-01-30T17:52:43;4.10;99.90
12013;DHT22;6065;48.138;16.402;2024-01-30T17:55:10;4.10;99.90
12013;DHT22;6065;48.138;16.402;2024-01-30T17:57:38;4.10;99.90
12013;DHT22;6065;48.138;16.402;2024-01-30T18:00:05;4.00;99.90
12013;DHT22;6065;48.138;16.402;2024-01-30T18:02:33;4.00;99.90
12013;DHT22;6065;48.138;16.402;2024-01-30T18:05:00;4.00;99.90
12013;DHT22;6065;48.138;16.402;2024-01-30T18:07:26;4.00;99.90
12013;DHT22;6065;48.138;16.402;2024-01-30T18:09:53;3.90;99.90
12013;DHT22;6065;48.138;16.402;2024-01-30T18:12:20;3.90;99.90
12013;DHT22;6065;48.138;16.402;2024-01-30T18:14:48;3.90;99.90
12013;DHT22;6065;48.138;16.402;2024-01-30T18:17:16;3.90;99.90
12013;DHT22;6065;48.138;16.402;2024-01-30T18:19:43;3.90;99.90
12013;DHT22;6065;48.138;16.402;2024-01-30T18:22:09;3.90;99.90
12013;DHT22;6065;48.138;16.402;2024-01-30T18:24:36;3.80;99.90
12013;DHT22;6065;48.138;16.402;2024-01-30T18:27:04;3.80;99.90
12013;DHT22;6065;48.138;16.402;2024-01-30T18:29:31;3.80;99.90
12013;DHT22;6065;48.138;16.402;2024-01-30T18:31:59;3.70;99.90
12013;DHT22;6065;48.138;16.402;2024-01-30T18:34:26;3.70;99.90
12013;DHT22;6065;48.138;16.402;2024-01-30T18:36:53;3.70;99.90
12013;DHT22;6065;48.138;16.402;2024-01-30T18:39:23;3.70;99.90
12013;DHT22;6065;48.138;16.402;2024-01-30T18:41:50;3.70;99.90
12013;DHT22;6065;48.138;16.402;2024-01-30T18:44:16;3.70;99.90
12013;DHT22;6065;48.138;16.402;2024-01-30T18:46:43;3.60;99.90
12013;DHT22;6065;48.138;16.402;2024-01-30T18:49:12;3.60;99.90
12013;DHT22;6065;48.138;16.402;2024-01-30T18:51:39;3.60;99.90
12013;DHT22;6065;48.138;16.402;2024-01-30T18:54:06;3.50;99.90
12013;DHT22;6065;48.138;16.402;2024-01-30T18:56:33;3.50;99.90
12013;DHT22;6065;48.138;16.402;2024-01-30T18:59:00;3.50;99.90
12013;DHT22;6065;48.138;16.402;2024-01-30T19:01:27;3.50;99.90
12013;DHT22;6065;48.138;16.402;2024-01-30T19:03:53;3.40;99.90
12013;DHT22;6065;48.138;16.402;2024-01-30T19:06:22;3.40;99.90
12013;DHT22;6065;48.138;16.402;2024-01-30T19:08:48;3.30;99.90
12013;DHT22;6065;48.138;16.402;2024-01-30T19:11:18;3.30;99.90
12013;DHT22;6065;48.138;16.402;2024-01-30T19:13:45;3.40;99.90
12013;DHT22;6065;48.138;16.402;2024-01-30T19:16:12;3.30;99.90
12013;DHT22;6065;48.138;16.402;2024-01-30T19:18:39;3.20;99.90
12013;DHT22;6065;48.138;16.402;2024-01-30T19:21:06;3.20;99.90
12013;DHT22;6065;48.138;16.402;2024-01-30T19:23:34;3.20;99.90
12013;DHT22;6065;48.138;16.402;2024-01-30T19:26:01;3.10;99.90
12013;DHT22;6065;48.138;16.402;2024-01-30T19:28:29;3.10;99.90
12013;DHT22;6065;48.138;16.402;2024-01-30T19:30:56;3.10;99.90
12013;DHT22;6065;48.138;16.402;2024-01-30T19:33:22;3.10;99.90
12013;DHT22;6065;48.138;16.402;2024-01-30T19:35:49;3.10;99.90
12013;DHT22;6065;48.138;16.402;2024-01-30T19:38:16;3.10;99.90
12013;DHT22;6065;48.138;16.402;2024-01-30T19:40:45;3.10;99.90
12013;DHT22;6065;48.138;16.402;2024-01-30T19:43:12;3.10;99.90
12013;DHT22;6065;48.138;16.402;2024-01-30T19:45:38;3.10;99.90
12013;DHT22;6065;48.138;16.402;2024-01-30T19:48:06;3.10;99.90
12013;DHT22;6065;48.138;16.402;2024-01-30T19:50:33;3.10;99.90
12013;DHT22;6065;48.138;16.402;2024-01-30T19:52:59;3.10;99.90
12013;DHT22;6065;48.138;16.402;2024-01-30T19:55:27;3.10;99.90
12013;DHT22;6065;48.138;16.402;2024-01-30T19:57:55;3.10;99.90
12013;DHT22;6065;48.138;16.402;2024-01-30T20:00:22;3.10;99.90
12013;DHT22;6065;48.138;16.402;2024-01-30T20:02:49;3.10;99.90
12013;DHT22;6065;48.138;16.402;2024-01-30T20:05:16;3.10;99.90
12013;DHT22;6065;48.138;16.402;2024-01-30T20:07:43;3.10;99.90
12013;DHT22;6065;48.138;16.402;2024-01-30T20:10:10;3.10;99.90
12013;DHT22;6065;48.138;16.402;2024-01-30T20:12:38;3.10;99.90
12013;DHT22;6065;48.138;16.402;2024-01-30T20:15:08;3.10;99.90
12013;DHT22;6065;48.138;16.402;2024-01-30T20:17:37;3.10;99.90
12013;DHT22;6065;48.138;16.402;2024-01-30T20:20:04;3.10;99.90
12013;DHT22;6065;48.138;16.402;2024-01-30T20:22:31;3.10;99.90
12013;DHT22;6065;48.138;16.402;2024-01-30T20:24:58;3.00;99.90
12013;DHT22;6065;48.138;16.402;2024-01-30T20:27:24;3.00;99.90
12013;DHT22;6065;48.138;16.402;2024-01-30T20:29:52;3.00;99.90
12013;DHT22;6065;48.138;16.402;2024-01-30T20:32:21;2.90;99.90